Flight Track Log - Related Links

Times and Time Zones

All times are in EDT time to prevent confusion due to time zone crossing. See the UAL4335 flight status page for this flight to view local times or setup timezone preferences in your user account.

Time Position Orientation Groundspeed Altitude Reporting Facility
EDT Latitude Longitude Course Direction KTS MPH feet Rate Location/Type
Mon 04:26:11 PM 41.9333 -87.9167 228° Southwest 174 200 2,200  Level Chicago TRACON
Mon 04:27:11 PM 41.9000 -87.9667 228° Southwest 204 235 4,300 1,714 Climbing Chicago TRACON
Mon 04:28:17 PM 41.8667 -88.0333 236° Southwest 238 274 5,800 1,565 Climbing Chicago TRACON
Mon 04:29:29 PM 41.8581 -88.1569 265° West 260 299 7,900 1,791 Climbing Chicago Center
Mon 04:30:31 PM 41.8544 -88.2583 267° West 272 313 9,800 1,824 Climbing Chicago Center
Mon 04:31:34 PM 41.8506 -88.3617 267° West 280 322 11,700 1,824 Climbing Chicago Center
Mon 04:32:36 PM 41.8447 -88.4644 266° West 280 322 13,600 1,113 Climbing Chicago Center
Mon 04:33:38 PM 41.8244 -88.5733 256° West 303 349 14,000 339 Climbing Chicago Center
Mon 04:34:40 PM 41.7953 -88.7225 255° West 347 399 14,300 629 Climbing Chicago Center
Mon 04:35:42 PM 41.7728 -88.8461 256° West 347 399 15,300 823 Climbing Chicago Center
Mon 04:36:44 PM 41.7503 -88.9706 256° West 347 399 16,000 339 Climbing Chicago Center
Mon 04:37:46 PM 41.7256 -89.1017 256° West 365 420 16,000  Level Chicago Center
Mon 04:38:48 PM 41.6931 -89.2650 255° West 384 442 16,000  Level Chicago Center
Mon 04:39:50 PM 41.6672 -89.4042 256° West 389 448 16,000  Level Chicago Center
Mon 04:40:52 PM 41.6403 -89.5428 255° West 389 448 16,000  Level Chicago Center
Mon 04:41:54 PM 41.6150 -89.6753 256° West 386 444 16,000 -290 Level Chicago Center
Mon 04:42:56 PM 41.5883 -89.8128 256° West 385 443 15,400 -1,161 Descending Chicago Center
Mon 04:43:58 PM 41.5556 -89.9756 255° West 382 440 13,600 -1,968 Descending Chicago Center
Mon 04:45:01 PM 41.5225 -90.0931 249° West 354 407 11,300 -1,968 Descending Chicago Center
Mon 04:46:03 PM 41.4947 -90.2025 251° West 327 376 9,500 -2,613 Descending Chicago Center
Mon 04:47:05 PM 41.4664 -90.2917 247° West 292 336 5,900 -3,532 Descending Chicago Center
Mon 04:48:07 PM 41.4475 -90.3747 253° West 266 306 2,200 -2,129 Descending Chicago Center
Mon 04:49:09 PM 41.4503 -90.4258 274° West 193 222 1,500 -677 Descending Chicago Center

Login

Don't have an account? Register now (free) for customized features, flight alerts, and more!